首页
METAR-TAF:

METAR-TAF

机场 :

路易斯·穆尼奥斯·马林国际机场

圣胡安, 波多黎哥, 美国

纬度: 18-27N, 经度: 066-00W, 海拔: 3米

当前天气观测

该预报发布于1小时和6分钟前的12:56 UTC
风速8节,风向
温度 29°C
湿度 70%
气压 1016 hPa
能見度: 16.1公里
少量云层高于3000英尺
少量云层高于6500英尺
多云层高于9000英尺

METAR: TJSJ 221256Z 09008KT 10SM FEW030 FEW065 BKN090 29/23 A2999 RMK AO2 SLP155 T02890228

时间: 10:02 (14:02 UTC)

预报

该预报发布于2小时和22分钟前的11:40 UTC
预报有效从22日的 12点(UTC)到 23日的 12点(UTC)
风速6节,风向多变
能見度: 10公里
散云层高于3000英尺
从 22日的 1300点(UTC)
风速10节,风向
能見度: 10公里
散云层高于2500英尺
从 22日的 1800点(UTC)
风速14节,风向,有时为23节阵风
能見度: 10公里
多云层高于3000英尺
阴天层高于5000英尺
附近有阵雨
从 22日的 2000点(UTC)
风速11节,风向
能見度: 10公里
多云层高于3000英尺

TAF: TJSJ 221140Z 2212/2312 VRB06KT P6SM SCT030 FM221300 08010KT P6SM SCT025 FM221800 08014G23KT P6SM VCSH BKN030 OVC050 FM222000 09011KT P6SM BKN030

超过4000个机场的气象观测和天气预报(METAR&TAF报告)。

可查询的气象台以黄色和红色小点在地图上表示。

将鼠标移到小点上方,可查看气象台名称。

然后点击查看天气观测和预报。

如需切换地图:点击带黑十字的绿色按钮放大地图;点击带横线的绿色按钮缩小地图;或者点击绿色箭头查看邻近地区的地图。


METAR-TAF: